createdAt,value
2022-08-20T00:00:22.995Z,1015.10
2022-08-20T00:01:25.801Z,1015.10
2022-08-20T00:02:29.046Z,1015.09
2022-08-20T00:04:07.470Z,1015.07
2022-08-20T00:05:10.797Z,1015.05
2022-08-20T00:06:13.642Z,1015.07
2022-08-20T00:07:48.417Z,1015.08
2022-08-20T00:08:51.475Z,1015.07
2022-08-20T00:09:54.146Z,1015.07
2022-08-20T00:11:34.557Z,1015.09
2022-08-20T00:12:37.572Z,1015.05
2022-08-20T00:13:40.418Z,1015.07
2022-08-20T00:15:17.053Z,1015.06
2022-08-20T00:16:20.071Z,1015.06
2022-08-20T00:17:22.854Z,1015.03
2022-08-20T00:18:58.856Z,1015.01
2022-08-20T00:20:01.598Z,1015.03
2022-08-20T00:21:04.294Z,1015.00
2022-08-20T00:22:49.882Z,1015.01
2022-08-20T00:23:56.656Z,1014.99
2022-08-20T00:24:59.692Z,1015.00
2022-08-20T00:26:34.653Z,1015.01
2022-08-20T00:27:49.400Z,1015.02
2022-08-20T00:28:52.628Z,1015.02
2022-08-20T00:30:27.427Z,1015.05
2022-08-20T00:31:30.551Z,1015.04
2022-08-20T00:32:35.351Z,1015.05
2022-08-20T00:34:09.856Z,1015.03
2022-08-20T00:35:18.464Z,1015.07
2022-08-20T00:36:21.267Z,1015.07
2022-08-20T00:38:06.325Z,1015.07
2022-08-20T00:39:09.057Z,1015.09
2022-08-20T00:40:28.156Z,1015.12
2022-08-20T00:42:02.827Z,1015.13
2022-08-20T00:43:05.664Z,1015.12
2022-08-20T00:44:12.899Z,1015.15
2022-08-20T00:45:47.547Z,1015.12
2022-08-20T00:46:50.331Z,1015.16
2022-08-20T00:48:02.783Z,1015.14
2022-08-20T00:49:37.592Z,1015.19
2022-08-20T00:50:40.335Z,1015.19
2022-08-20T00:51:43.054Z,1015.21
2022-08-20T00:53:17.815Z,1015.22
2022-08-20T00:54:20.516Z,1015.21
2022-08-20T00:55:23.230Z,1015.16
2022-08-20T00:57:00.884Z,1015.16
2022-08-20T00:58:13.385Z,1015.17
2022-08-20T00:59:17.298Z,1015.17
2022-08-20T01:00:23.514Z,1015.19
2022-08-20T01:01:26.635Z,1015.21
2022-08-20T01:02:47.682Z,1015.20
2022-08-20T01:04:25.608Z,1015.25
2022-08-20T01:05:35.376Z,1015.22
2022-08-20T01:06:38.342Z,1015.28
2022-08-20T01:08:14.168Z,1015.29
2022-08-20T01:09:17.154Z,1015.27
2022-08-20T01:10:56.595Z,1015.28
2022-08-20T01:12:35.360Z,1015.27
2022-08-20T01:13:45.837Z,1015.21
2022-08-20T01:14:48.711Z,1015.26
2022-08-20T01:16:34.536Z,1015.28
2022-08-20T01:17:38.345Z,1015.26
2022-08-20T01:18:42.537Z,1015.25
2022-08-20T01:20:27.451Z,1015.25
2022-08-20T01:21:30.273Z,1015.25
2022-08-20T01:22:38.068Z,1015.23
2022-08-20T01:24:12.694Z,1015.30
2022-08-20T01:25:15.464Z,1015.31
2022-08-20T01:26:21.156Z,1015.33
2022-08-20T01:28:01.412Z,1015.38
2022-08-20T01:29:04.443Z,1015.37
2022-08-20T01:30:11.736Z,1015.33
2022-08-20T01:31:46.612Z,1015.32
2022-08-20T01:32:49.390Z,1015.31
2022-08-20T01:33:53.229Z,1015.35
2022-08-20T01:35:27.644Z,1015.35
2022-08-20T01:36:30.692Z,1015.34
2022-08-20T01:37:43.041Z,1015.34
2022-08-20T01:39:18.327Z,1015.32
2022-08-20T01:40:22.307Z,1015.28
2022-08-20T01:41:33.846Z,1015.28
2022-08-20T01:43:12.228Z,1015.29
2022-08-20T01:44:31.013Z,1015.30
2022-08-20T01:45:39.119Z,1015.30
2022-08-20T01:47:25.833Z,1015.23
2022-08-20T01:48:36.483Z,1015.26
2022-08-20T01:49:39.147Z,1015.30
2022-08-20T01:51:13.801Z,1015.31
2022-08-20T01:52:16.703Z,1015.33
2022-08-20T01:53:19.554Z,1015.36
2022-08-20T01:54:54.701Z,1015.38
2022-08-20T01:55:57.548Z,1015.30
2022-08-20T01:57:00.418Z,1015.35
2022-08-20T01:58:35.244Z,1015.34
2022-08-20T01:59:45.162Z,1015.30
2022-08-20T02:00:31.609Z,1015.28
2022-08-20T02:01:46.020Z,1015.27
2022-08-20T02:02:49.656Z,1015.28
2022-08-20T02:04:31.335Z,1015.27
2022-08-20T02:05:36.389Z,1015.29
2022-08-20T02:06:39.353Z,1015.26
2022-08-20T02:08:30.686Z,1015.32
2022-08-20T02:09:33.646Z,1015.29
2022-08-20T02:10:37.453Z,1015.27
2022-08-20T02:12:12.169Z,1015.34
2022-08-20T02:13:14.996Z,1015.31
2022-08-20T02:14:18.374Z,1015.31
2022-08-20T02:15:54.643Z,1015.30
2022-08-20T02:17:06.744Z,1015.31
2022-08-20T02:18:13.670Z,1015.34
2022-08-20T02:19:48.323Z,1015.33
2022-08-20T02:20:51.185Z,1015.34
2022-08-20T02:21:54.285Z,1015.37
2022-08-20T02:23:36.411Z,1015.33
2022-08-20T02:24:39.055Z,1015.35
2022-08-20T02:25:41.742Z,1015.38
2022-08-20T02:27:16.523Z,1015.32
2022-08-20T02:28:19.568Z,1015.38
2022-08-20T02:29:22.637Z,1015.35
2022-08-20T02:31:07.090Z,1015.34
2022-08-20T02:32:45.711Z,1015.29
2022-08-20T02:34:32.876Z,1015.26
2022-08-20T02:36:07.510Z,1015.28
2022-08-20T02:37:10.254Z,1015.28
2022-08-20T02:38:13.005Z,1015.33
2022-08-20T02:39:47.718Z,1015.35
2022-08-20T02:40:50.861Z,1015.35
2022-08-20T02:41:53.695Z,1015.39
2022-08-20T02:43:28.602Z,1015.40
2022-08-20T02:44:31.350Z,1015.44
2022-08-20T02:45:34.031Z,1015.43
2022-08-20T02:47:08.992Z,1015.42
2022-08-20T02:48:11.711Z,1015.40
2022-08-20T02:49:14.644Z,1015.39
2022-08-20T02:50:53.947Z,1015.33
2022-08-20T02:51:56.774Z,1015.33
2022-08-20T02:53:03.396Z,1015.35
2022-08-20T02:54:38.036Z,1015.40
2022-08-20T02:55:40.729Z,1015.42
2022-08-20T02:56:43.615Z,1015.46
2022-08-20T02:58:18.349Z,1015.48
2022-08-20T02:59:30.115Z,1015.49
2022-08-20T03:00:22.873Z,1015.53
2022-08-20T03:01:30.818Z,1015.50
2022-08-20T03:02:45.528Z,1015.51
2022-08-20T03:04:20.317Z,1015.51
2022-08-20T03:05:26.987Z,1015.51
2022-08-20T03:06:31.009Z,1015.47
2022-08-20T03:08:06.002Z,1015.53
2022-08-20T03:09:08.812Z,1015.50
2022-08-20T03:10:11.832Z,1015.49
2022-08-20T03:11:46.930Z,1015.45
2022-08-20T03:12:49.619Z,1015.43
2022-08-20T03:13:52.353Z,1015.41
2022-08-20T03:15:29.101Z,1015.37
2022-08-20T03:16:32.261Z,1015.35
2022-08-20T03:17:35.288Z,1015.34
2022-08-20T03:19:10.135Z,1015.36
2022-08-20T03:20:13.284Z,1015.34
2022-08-20T03:21:21.269Z,1015.34
2022-08-20T03:22:56.269Z,1015.31
2022-08-20T03:23:58.950Z,1015.29
2022-08-20T03:25:05.213Z,1015.25
2022-08-20T03:26:39.912Z,1015.24
2022-08-20T03:27:53.166Z,1015.24
2022-08-20T03:29:00.580Z,1015.23
2022-08-20T03:30:35.183Z,1015.22
2022-08-20T03:31:38.299Z,1015.22
2022-08-20T03:32:41.112Z,1015.19
2022-08-20T03:34:15.697Z,1015.24
2022-08-20T03:35:18.335Z,1015.25
2022-08-20T03:36:28.624Z,1015.27
2022-08-20T03:38:05.383Z,1015.31
2022-08-20T03:39:18.782Z,1015.37
2022-08-20T03:40:22.118Z,1015.41
2022-08-20T03:41:58.975Z,1015.42
2022-08-20T03:43:01.904Z,1015.39
2022-08-20T03:44:04.600Z,1015.42
2022-08-20T03:45:50.482Z,1015.43
2022-08-20T03:47:09.848Z,1015.45
2022-08-20T03:48:13.457Z,1015.40
2022-08-20T03:49:56.698Z,1015.48
2022-08-20T03:51:09.215Z,1015.45
2022-08-20T03:52:11.981Z,1015.50
2022-08-20T03:53:46.422Z,1015.50
2022-08-20T03:54:49.218Z,1015.46
2022-08-20T03:56:02.329Z,1015.51
2022-08-20T03:57:37.204Z,1015.50
2022-08-20T03:58:46.875Z,1015.51
2022-08-20T03:59:58.443Z,1015.55
2022-08-20T04:00:23.692Z,1015.51
2022-08-20T04:01:57.876Z,1015.56
2022-08-20T04:03:02.212Z,1015.52
2022-08-20T04:04:41.360Z,1015.51
2022-08-20T04:05:53.698Z,1015.51
2022-08-20T04:06:57.032Z,1015.51
2022-08-20T04:08:03.245Z,1015.51
2022-08-20T04:09:38.480Z,1015.50
2022-08-20T04:10:41.514Z,1015.51
2022-08-20T04:11:44.586Z,1015.48
2022-08-20T04:13:23.744Z,1015.51
2022-08-20T04:14:35.823Z,1015.53
2022-08-20T04:15:39.129Z,1015.58
2022-08-20T04:17:18.498Z,1015.61
2022-08-20T04:18:22.703Z,1015.67
2022-08-20T04:19:25.491Z,1015.65
2022-08-20T04:21:03.949Z,1015.65
2022-08-20T04:22:06.862Z,1015.72
2022-08-20T04:23:11.039Z,1015.68
2022-08-20T04:24:45.749Z,1015.73
2022-08-20T04:25:56.579Z,1015.73
2022-08-20T04:26:59.375Z,1015.73
2022-08-20T04:28:34.444Z,1015.78
2022-08-20T04:29:43.485Z,1015.78
2022-08-20T04:30:53.699Z,1015.85
2022-08-20T04:32:29.142Z,1015.89
2022-08-20T04:33:46.598Z,1015.85
2022-08-20T04:34:52.961Z,1015.86
2022-08-20T04:36:27.771Z,1015.83
2022-08-20T04:37:30.775Z,1015.85
2022-08-20T04:38:55.730Z,1015.87
2022-08-20T04:40:30.837Z,1015.84
2022-08-20T04:41:35.648Z,1015.82
2022-08-20T04:42:39.874Z,1015.83
2022-08-20T04:44:22.939Z,1015.77
2022-08-20T04:45:26.094Z,1015.76
2022-08-20T04:46:29.231Z,1015.75
2022-08-20T04:48:14.907Z,1015.70
2022-08-20T04:49:18.173Z,1015.71
2022-08-20T04:50:21.866Z,1015.70
2022-08-20T04:52:01.315Z,1015.75
2022-08-20T04:53:04.130Z,1015.75
2022-08-20T04:54:11.909Z,1015.78
2022-08-20T04:55:46.666Z,1015.77
2022-08-20T04:56:49.486Z,1015.77
2022-08-20T04:57:52.352Z,1015.86
2022-08-20T04:59:27.210Z,1015.82
2022-08-20T05:00:24.253Z,1015.81
2022-08-20T05:01:27.306Z,1015.79
2022-08-20T05:02:30.553Z,1015.78
2022-08-20T05:04:05.356Z,1015.81
2022-08-20T05:05:08.281Z,1015.80
2022-08-20T05:06:11.400Z,1015.87
2022-08-20T05:07:47.431Z,1015.93
2022-08-20T05:08:50.126Z,1015.93
2022-08-20T05:09:55.585Z,1015.92
2022-08-20T05:11:47.886Z,1015.95
2022-08-20T05:13:02.671Z,1015.98
2022-08-20T05:14:10.032Z,1016.02
2022-08-20T05:15:44.849Z,1016.03
2022-08-20T05:16:47.671Z,1016.01
2022-08-20T05:17:50.404Z,1016.00
2022-08-20T05:19:25.252Z,1016.01
2022-08-20T05:20:30.743Z,1016.04
2022-08-20T05:21:33.788Z,1016.05
2022-08-20T05:23:08.573Z,1016.05
2022-08-20T05:24:11.624Z,1016.06
2022-08-20T05:25:14.631Z,1016.05
2022-08-20T05:26:50.024Z,1016.03
2022-08-20T05:27:59.001Z,1016.02
2022-08-20T05:29:10.183Z,1016.01
2022-08-20T05:30:47.691Z,1016.04
2022-08-20T05:31:50.693Z,1016.08
2022-08-20T05:32:55.964Z,1016.10
2022-08-20T05:34:30.799Z,1016.12
2022-08-20T05:35:33.932Z,1016.12
2022-08-20T05:36:36.725Z,1016.12
2022-08-20T05:38:18.906Z,1016.13
2022-08-20T05:39:21.829Z,1016.16
2022-08-20T05:40:29.554Z,1016.08
2022-08-20T05:42:20.169Z,1016.12
2022-08-20T05:43:23.019Z,1016.12
2022-08-20T05:44:25.974Z,1016.18
2022-08-20T05:46:08.736Z,1016.19
2022-08-20T05:47:16.695Z,1016.17
2022-08-20T05:48:28.811Z,1016.14
2022-08-20T05:50:03.912Z,1016.19
2022-08-20T05:51:20.987Z,1016.19
2022-08-20T05:52:24.257Z,1016.25
2022-08-20T05:53:59.599Z,1016.26
2022-08-20T05:55:02.932Z,1016.30
2022-08-20T05:56:07.263Z,1016.29
2022-08-20T05:57:45.289Z,1016.29
2022-08-20T05:58:48.224Z,1016.31
2022-08-20T05:59:55.127Z,1016.35
2022-08-20T06:00:23.657Z,1016.35
2022-08-20T06:01:27.101Z,1016.35
2022-08-20T06:02:32.920Z,1016.35
2022-08-20T06:04:07.742Z,1016.35
2022-08-20T06:05:10.549Z,1016.33
2022-08-20T06:06:52.042Z,1016.42
2022-08-20T06:08:26.874Z,1016.36
2022-08-20T06:09:44.531Z,1016.39
2022-08-20T06:10:49.049Z,1016.36
2022-08-20T06:12:28.930Z,1016.34
2022-08-20T06:13:31.757Z,1016.34
2022-08-20T06:14:34.607Z,1016.29
2022-08-20T06:16:13.783Z,1016.30
2022-08-20T06:17:28.010Z,1016.32
2022-08-20T06:19:32.519Z,1016.35
2022-08-20T06:21:10.449Z,1016.37
2022-08-20T06:22:31.020Z,1016.37
2022-08-20T06:24:02.470Z,1016.38
2022-08-20T06:25:43.417Z,1016.39
2022-08-20T06:26:46.173Z,1016.41
2022-08-20T06:27:48.911Z,1016.45
2022-08-20T06:29:23.430Z,1016.45
2022-08-20T06:30:26.343Z,1016.43
2022-08-20T06:31:29.309Z,1016.42
2022-08-20T06:33:03.974Z,1016.42
2022-08-20T06:34:06.926Z,1016.47
2022-08-20T06:35:14.978Z,1016.47
2022-08-20T06:36:51.767Z,1016.50
2022-08-20T06:37:54.468Z,1016.43
2022-08-20T06:38:57.625Z,1016.45
2022-08-20T06:40:32.959Z,1016.45
2022-08-20T06:41:47.559Z,1016.46
2022-08-20T06:42:59.141Z,1016.46
2022-08-20T06:44:33.794Z,1016.50
2022-08-20T06:45:36.724Z,1016.49
2022-08-20T06:46:39.566Z,1016.46
2022-08-20T06:48:15.374Z,1016.48
2022-08-20T06:49:18.465Z,1016.49
2022-08-20T06:50:27.113Z,1016.46
2022-08-20T06:52:08.072Z,1016.49
2022-08-20T06:53:44.870Z,1016.55
2022-08-20T06:54:47.916Z,1016.55
2022-08-20T06:56:22.616Z,1016.56
2022-08-20T06:57:25.504Z,1016.55
2022-08-20T06:58:49.884Z,1016.52
2022-08-20T07:00:23.205Z,1016.53
2022-08-20T07:01:26.436Z,1016.52
2022-08-20T07:02:36.356Z,1016.49
2022-08-20T07:04:11.765Z,1016.54
2022-08-20T07:05:15.484Z,1016.57
2022-08-20T07:06:18.327Z,1016.54
2022-08-20T07:07:53.093Z,1016.60
2022-08-20T07:08:56.036Z,1016.60
2022-08-20T07:09:58.998Z,1016.60
2022-08-20T07:11:39.864Z,1016.60
2022-08-20T07:12:42.742Z,1016.62
2022-08-20T07:13:45.688Z,1016.62
2022-08-20T07:15:20.595Z,1016.64
2022-08-20T07:16:23.613Z,1016.61
2022-08-20T07:17:29.798Z,1016.63
2022-08-20T07:19:15.016Z,1016.61
2022-08-20T07:20:17.977Z,1016.57
2022-08-20T07:21:20.889Z,1016.63
2022-08-20T07:22:56.619Z,1016.62
2022-08-20T07:23:59.576Z,1016.62
2022-08-20T07:25:02.497Z,1016.63
2022-08-20T07:26:37.494Z,1016.63
2022-08-20T07:27:43.156Z,1016.64
2022-08-20T07:28:46.086Z,1016.65
2022-08-20T07:30:26.381Z,1016.66
2022-08-20T07:32:09.746Z,1016.72
2022-08-20T07:33:18.014Z,1016.68
2022-08-20T07:34:56.120Z,1016.68
2022-08-20T07:35:58.989Z,1016.62
2022-08-20T07:37:01.903Z,1016.71
2022-08-20T07:38:36.694Z,1016.73
2022-08-20T07:39:42.414Z,1016.70
2022-08-20T07:40:45.592Z,1016.74
2022-08-20T07:42:20.286Z,1016.72
2022-08-20T07:43:23.224Z,1016.76
2022-08-20T07:44:31.004Z,1016.75
2022-08-20T07:46:06.858Z,1016.75
2022-08-20T07:47:17.583Z,1016.78
2022-08-20T07:48:37.146Z,1016.77
2022-08-20T07:50:11.940Z,1016.77
2022-08-20T07:51:15.028Z,1016.76
2022-08-20T07:52:18.323Z,1016.76
2022-08-20T07:53:53.369Z,1016.77
2022-08-20T07:54:56.225Z,1016.79
2022-08-20T07:56:11.441Z,1016.76
2022-08-20T07:57:47.804Z,1016.82
2022-08-20T07:58:50.831Z,1016.75
2022-08-20T07:59:53.796Z,1016.77
2022-08-20T08:00:23.611Z,1016.77
2022-08-20T08:01:27.112Z,1016.79
2022-08-20T08:02:30.170Z,1016.72
2022-08-20T08:04:04.951Z,1016.83
2022-08-20T08:05:07.874Z,1016.82
2022-08-20T08:06:10.766Z,1016.73
2022-08-20T08:08:01.572Z,1016.74
2022-08-20T08:09:06.604Z,1016.74
2022-08-20T08:10:09.647Z,1016.79
2022-08-20T08:11:47.472Z,1016.78
2022-08-20T08:12:50.731Z,1016.76
2022-08-20T08:13:53.924Z,1016.75
2022-08-20T08:15:28.438Z,1016.76
2022-08-20T08:16:31.280Z,1016.73
2022-08-20T08:17:34.066Z,1016.76
2022-08-20T08:19:09.034Z,1016.73
2022-08-20T08:20:11.718Z,1016.69
2022-08-20T08:21:14.843Z,1016.68
2022-08-20T08:22:50.813Z,1016.73
2022-08-20T08:24:10.468Z,1016.75
2022-08-20T08:25:20.407Z,1016.74
2022-08-20T08:27:02.661Z,1016.68
2022-08-20T08:28:05.552Z,1016.72
2022-08-20T08:29:08.413Z,1016.73
2022-08-20T08:30:43.271Z,1016.73
2022-08-20T08:31:47.997Z,1016.76
2022-08-20T08:32:50.922Z,1016.78
2022-08-20T08:34:25.902Z,1016.77
2022-08-20T08:35:32.134Z,1016.74
2022-08-20T08:36:38.923Z,1016.73
2022-08-20T08:38:20.169Z,1016.74
2022-08-20T08:39:23.068Z,1016.75
2022-08-20T08:40:32.686Z,1016.78
2022-08-20T08:42:25.408Z,1016.73
2022-08-20T08:43:37.563Z,1016.77
2022-08-20T08:44:42.797Z,1016.75
2022-08-20T08:46:17.666Z,1016.77
2022-08-20T08:47:20.561Z,1016.77
2022-08-20T08:48:29.588Z,1016.80
2022-08-20T08:50:05.772Z,1016.84
2022-08-20T08:51:43.628Z,1016.83
2022-08-20T08:52:48.596Z,1016.84
2022-08-20T08:54:23.130Z,1016.84
2022-08-20T08:55:26.043Z,1016.85
2022-08-20T08:56:30.621Z,1016.91
2022-08-20T08:58:22.846Z,1016.90
2022-08-20T08:59:25.855Z,1016.92
2022-08-20T09:00:23.555Z,1016.95
2022-08-20T09:02:07.987Z,1016.99
2022-08-20T09:03:13.275Z,1016.95
2022-08-20T09:04:47.957Z,1016.96
2022-08-20T09:05:51.103Z,1016.92
2022-08-20T09:06:58.150Z,1016.96
2022-08-20T09:08:32.947Z,1016.94
2022-08-20T09:09:35.744Z,1016.92
2022-08-20T09:10:38.796Z,1016.94
2022-08-20T09:12:13.457Z,1016.94
2022-08-20T09:13:16.327Z,1016.95
2022-08-20T09:14:19.275Z,1016.95
2022-08-20T09:15:54.180Z,1016.96
2022-08-20T09:17:04.723Z,1016.94
2022-08-20T09:18:11.000Z,1016.97
2022-08-20T09:19:45.862Z,1016.91
2022-08-20T09:20:48.750Z,1016.97
2022-08-20T09:21:51.760Z,1016.95
2022-08-20T09:23:26.659Z,1016.97
2022-08-20T09:24:29.533Z,1016.96
2022-08-20T09:25:32.361Z,1016.98
2022-08-20T09:27:07.108Z,1017.02
2022-08-20T09:28:11.079Z,1017.01
2022-08-20T09:29:26.692Z,1017.00
2022-08-20T09:31:04.741Z,1017.07
2022-08-20T09:32:10.437Z,1017.03
2022-08-20T09:33:14.604Z,1017.03
2022-08-20T09:34:49.213Z,1017.06
2022-08-20T09:36:00.612Z,1017.05
2022-08-20T09:37:35.118Z,1017.03
2022-08-20T09:39:15.149Z,1017.07
2022-08-20T09:40:21.213Z,1017.03
2022-08-20T09:41:24.510Z,1017.03
2022-08-20T09:42:59.549Z,1017.04
2022-08-20T09:44:02.737Z,1017.03
2022-08-20T09:45:05.494Z,1017.05
2022-08-20T09:46:46.077Z,1017.04
2022-08-20T09:48:03.005Z,1016.98
2022-08-20T09:49:21.638Z,1016.95
2022-08-20T09:50:56.403Z,1016.97
2022-08-20T09:51:59.224Z,1017.00
2022-08-20T09:53:04.855Z,1016.99
2022-08-20T09:54:46.185Z,1016.97
2022-08-20T09:55:49.641Z,1016.93
2022-08-20T09:56:52.275Z,1016.98
2022-08-20T09:58:27.940Z,1016.99
2022-08-20T09:59:30.837Z,1016.94
2022-08-20T10:00:23.251Z,1016.95
2022-08-20T10:01:26.651Z,1016.97
2022-08-20T10:02:30.327Z,1016.95
2022-08-20T10:04:05.204Z,1016.95
2022-08-20T10:05:08.990Z,1016.90
2022-08-20T10:06:17.995Z,1016.91
2022-08-20T10:07:55.901Z,1016.94
2022-08-20T10:08:58.951Z,1016.93
2022-08-20T10:10:01.828Z,1016.92
2022-08-20T10:11:37.517Z,1016.94
2022-08-20T10:12:40.533Z,1016.95
2022-08-20T10:13:46.807Z,1016.95
2022-08-20T10:15:21.995Z,1016.96
2022-08-20T10:16:27.873Z,1016.96
2022-08-20T10:17:30.832Z,1016.95
2022-08-20T10:19:05.417Z,1016.96
2022-08-20T10:20:10.332Z,1016.94
2022-08-20T10:21:13.113Z,1016.98
2022-08-20T10:22:47.592Z,1017.00
2022-08-20T10:23:50.787Z,1016.96
2022-08-20T10:24:53.755Z,1016.99
2022-08-20T10:26:30.945Z,1016.98
2022-08-20T10:27:33.919Z,1016.98
2022-08-20T10:28:36.856Z,1017.01
2022-08-20T10:30:11.582Z,1016.98
2022-08-20T10:31:14.540Z,1016.98
2022-08-20T10:32:17.349Z,1016.95
2022-08-20T10:33:52.156Z,1016.96
2022-08-20T10:34:55.249Z,1016.96
2022-08-20T10:36:05.690Z,1016.93
2022-08-20T10:37:40.269Z,1016.98
2022-08-20T10:38:43.529Z,1016.93
2022-08-20T10:39:46.903Z,1016.96
2022-08-20T10:41:22.315Z,1016.99
2022-08-20T10:42:30.430Z,1016.96
2022-08-20T10:43:39.514Z,1016.91
2022-08-20T10:45:14.353Z,1016.92
2022-08-20T10:46:17.087Z,1016.93
2022-08-20T10:47:20.033Z,1016.93
2022-08-20T10:48:55.769Z,1016.90
2022-08-20T10:49:58.508Z,1016.94
2022-08-20T10:51:01.201Z,1016.91
2022-08-20T10:52:39.130Z,1016.94
2022-08-20T10:53:42.906Z,1016.89
2022-08-20T10:54:45.724Z,1016.92
2022-08-20T10:56:26.210Z,1016.92
2022-08-20T10:57:29.733Z,1016.91
2022-08-20T10:58:45.387Z,1016.95
2022-08-20T11:00:24.153Z,1016.96
2022-08-20T11:01:45.544Z,1016.95
2022-08-20T11:02:48.875Z,1016.94
2022-08-20T11:04:23.586Z,1016.93
2022-08-20T11:05:26.557Z,1016.89
2022-08-20T11:06:29.281Z,1016.93
2022-08-20T11:08:07.827Z,1016.90
2022-08-20T11:09:27.856Z,1016.92
2022-08-20T11:10:31.269Z,1016.94
2022-08-20T11:12:05.953Z,1016.96
2022-08-20T11:13:08.787Z,1016.98
2022-08-20T11:14:11.519Z,1016.99
2022-08-20T11:15:46.296Z,1016.96
2022-08-20T11:16:49.195Z,1016.96
2022-08-20T11:17:52.155Z,1016.97
2022-08-20T11:19:33.652Z,1016.97
2022-08-20T11:20:36.789Z,1016.98
2022-08-20T11:21:39.707Z,1016.98
2022-08-20T11:23:14.745Z,1016.99
2022-08-20T11:24:19.486Z,1016.99
2022-08-20T11:25:22.578Z,1016.95
2022-08-20T11:26:57.477Z,1016.95
2022-08-20T11:28:00.397Z,1016.97
2022-08-20T11:29:18.178Z,1016.95
2022-08-20T11:31:00.304Z,1016.91
2022-08-20T11:32:03.356Z,1016.93
2022-08-20T11:33:07.076Z,1016.98
2022-08-20T11:34:46.703Z,1016.95
2022-08-20T11:36:10.848Z,1016.99
2022-08-20T11:37:13.597Z,1016.96
2022-08-20T11:38:48.776Z,1016.97
2022-08-20T11:39:53.449Z,1017.00
2022-08-20T11:40:56.636Z,1017.05
2022-08-20T11:43:14.329Z,1017.00
2022-08-20T11:44:32.711Z,1017.05
2022-08-20T11:45:42.917Z,1017.07
2022-08-20T11:47:20.555Z,1017.05
2022-08-20T11:48:23.444Z,1017.02
2022-08-20T11:49:26.348Z,1017.02
2022-08-20T11:51:05.738Z,1017.04
2022-08-20T11:52:08.633Z,1017.05
2022-08-20T11:53:16.142Z,1017.07
2022-08-20T11:55:00.784Z,1017.06
2022-08-20T11:56:05.252Z,1017.10
2022-08-20T11:57:13.133Z,1017.07
2022-08-20T11:58:51.754Z,1017.10
2022-08-20T11:59:55.646Z,1017.10
2022-08-20T12:00:31.959Z,1017.09
2022-08-20T12:01:35.329Z,1017.09
2022-08-20T12:02:59.708Z,1017.06
2022-08-20T12:04:41.006Z,1017.07
2022-08-20T12:05:43.798Z,1017.01
2022-08-20T12:06:47.816Z,1017.01
2022-08-20T12:08:38.999Z,1017.02
2022-08-20T12:09:50.597Z,1017.01
2022-08-20T12:10:54.329Z,1017.00
2022-08-20T12:12:29.595Z,1017.02
2022-08-20T12:13:54.813Z,1016.90
2022-08-20T12:14:57.772Z,1016.94
2022-08-20T12:16:32.581Z,1016.92
2022-08-20T12:17:35.398Z,1016.91
2022-08-20T12:18:38.393Z,1016.88
2022-08-20T12:20:13.394Z,1016.88
2022-08-20T12:21:16.271Z,1016.85
2022-08-20T12:22:36.677Z,1016.85
2022-08-20T12:24:11.285Z,1016.81
2022-08-20T12:25:14.227Z,1016.82
2022-08-20T12:26:17.234Z,1016.89
2022-08-20T12:27:52.283Z,1016.83
2022-08-20T12:28:55.248Z,1016.91
2022-08-20T12:29:58.176Z,1016.89
2022-08-20T12:31:33.099Z,1016.83
2022-08-20T12:32:36.082Z,1016.90
2022-08-20T12:33:39.012Z,1016.87
2022-08-20T12:35:16.215Z,1016.90
2022-08-20T12:36:21.496Z,1016.97
2022-08-20T12:37:27.396Z,1017.00
2022-08-20T12:39:02.464Z,1016.93
2022-08-20T12:40:06.234Z,1016.96
2022-08-20T12:41:19.333Z,1016.89
2022-08-20T12:42:54.150Z,1016.83
2022-08-20T12:43:59.969Z,1016.85
2022-08-20T12:45:05.148Z,1016.87
2022-08-20T12:46:40.758Z,1016.79
2022-08-20T12:47:44.930Z,1016.77
2022-08-20T12:48:48.250Z,1016.79
2022-08-20T12:50:22.917Z,1016.78
2022-08-20T12:51:29.121Z,1016.80
2022-08-20T12:52:31.891Z,1016.81
2022-08-20T12:54:06.497Z,1016.83
2022-08-20T12:55:09.361Z,1016.82
2022-08-20T12:56:12.433Z,1016.79
2022-08-20T12:57:46.974Z,1016.80
2022-08-20T12:58:50.518Z,1016.81
2022-08-20T12:59:53.555Z,1016.84
2022-08-20T13:00:24.292Z,1016.81
2022-08-20T13:01:29.878Z,1016.78
2022-08-20T13:02:33.030Z,1016.75
2022-08-20T13:04:08.126Z,1016.75
2022-08-20T13:05:16.502Z,1016.78
2022-08-20T13:06:19.560Z,1016.77
2022-08-20T13:08:03.268Z,1016.74
2022-08-20T13:09:06.060Z,1016.73
2022-08-20T13:10:09.119Z,1016.71
2022-08-20T13:11:43.932Z,1016.73
2022-08-20T13:12:48.738Z,1016.79
2022-08-20T13:13:52.193Z,1016.80
2022-08-20T13:15:27.620Z,1016.80
2022-08-20T13:16:30.662Z,1016.79
2022-08-20T13:17:50.543Z,1016.77
2022-08-20T13:19:26.663Z,1016.71
2022-08-20T13:20:34.029Z,1016.74
2022-08-20T13:21:37.956Z,1016.72
2022-08-20T13:23:24.083Z,1016.63
2022-08-20T13:24:26.886Z,1016.61
2022-08-20T13:25:31.589Z,1016.63
2022-08-20T13:27:06.201Z,1016.63
2022-08-20T13:28:09.101Z,1016.58
2022-08-20T13:29:11.981Z,1016.61
2022-08-20T13:30:51.160Z,1016.62
2022-08-20T13:31:54.042Z,1016.52
2022-08-20T13:32:57.242Z,1016.54
2022-08-20T13:34:33.368Z,1016.53
2022-08-20T13:35:36.512Z,1016.52
2022-08-20T13:36:39.336Z,1016.52
2022-08-20T13:38:19.221Z,1016.52
2022-08-20T13:39:22.273Z,1016.50
2022-08-20T13:40:25.897Z,1016.42
2022-08-20T13:42:05.204Z,1016.49
2022-08-20T13:43:13.090Z,1016.56
2022-08-20T13:44:16.090Z,1016.53
2022-08-20T13:46:02.260Z,1016.57
2022-08-20T13:47:05.485Z,1016.55
2022-08-20T13:48:14.787Z,1016.54
2022-08-20T13:49:50.209Z,1016.58
2022-08-20T13:50:53.431Z,1016.53
2022-08-20T13:52:04.552Z,1016.51
2022-08-20T13:53:44.164Z,1016.50
2022-08-20T13:54:49.053Z,1016.50
2022-08-20T13:55:54.880Z,1016.45
2022-08-20T13:57:31.514Z,1016.39
2022-08-20T13:58:34.529Z,1016.40
2022-08-20T13:59:39.190Z,1016.37
2022-08-20T14:00:30.228Z,1016.37
2022-08-20T14:01:35.463Z,1016.34
2022-08-20T14:02:38.506Z,1016.35
2022-08-20T14:04:24.854Z,1016.36
2022-08-20T14:05:30.696Z,1016.35
2022-08-20T14:06:33.919Z,1016.37
2022-08-20T14:08:08.981Z,1016.35
2022-08-20T14:09:11.991Z,1016.36
2022-08-20T14:10:15.355Z,1016.37
2022-08-20T14:11:51.115Z,1016.33
2022-08-20T14:12:54.160Z,1016.37
2022-08-20T14:14:01.770Z,1016.36
2022-08-20T14:15:37.455Z,1016.33
2022-08-20T14:16:47.022Z,1016.38
2022-08-20T14:17:54.026Z,1016.36
2022-08-20T14:19:29.040Z,1016.33
2022-08-20T14:20:35.152Z,1016.30
2022-08-20T14:21:43.134Z,1016.30
2022-08-20T14:23:18.730Z,1016.35
2022-08-20T14:24:23.138Z,1016.33
2022-08-20T14:25:26.190Z,1016.30
2022-08-20T14:27:01.364Z,1016.32
2022-08-20T14:28:04.620Z,1016.28
2022-08-20T14:29:10.373Z,1016.34
2022-08-20T14:30:53.076Z,1016.33
2022-08-20T14:31:56.671Z,1016.37
2022-08-20T14:32:59.886Z,1016.37
2022-08-20T14:34:41.300Z,1016.41
2022-08-20T14:35:45.703Z,1016.41
2022-08-20T14:36:48.808Z,1016.45
2022-08-20T14:38:25.926Z,1016.44
2022-08-20T14:39:31.758Z,1016.49
2022-08-20T14:40:35.215Z,1016.46
2022-08-20T14:42:10.151Z,1016.45
2022-08-20T14:43:13.111Z,1016.46
2022-08-20T14:44:16.765Z,1016.45
2022-08-20T14:45:52.036Z,1016.43
2022-08-20T14:46:55.158Z,1016.40
2022-08-20T14:48:03.229Z,1016.39
2022-08-20T14:49:45.355Z,1016.45
2022-08-20T14:50:48.702Z,1016.45
2022-08-20T14:51:52.946Z,1016.47
2022-08-20T14:53:27.993Z,1016.50
2022-08-20T14:54:37.356Z,1016.45
2022-08-20T14:55:40.363Z,1016.51
2022-08-20T14:57:19.099Z,1016.49
2022-08-20T14:58:22.197Z,1016.48
2022-08-20T14:59:26.456Z,1016.46
2022-08-20T15:00:23.629Z,1016.47
2022-08-20T15:01:26.958Z,1016.46
2022-08-20T15:02:30.272Z,1016.48
2022-08-20T15:04:05.937Z,1016.42
2022-08-20T15:05:12.914Z,1016.45
2022-08-20T15:06:27.807Z,1016.41
2022-08-20T15:08:12.701Z,1016.44
2022-08-20T15:09:20.952Z,1016.44
2022-08-20T15:10:24.145Z,1016.44
2022-08-20T15:11:59.016Z,1016.46
2022-08-20T15:13:02.846Z,1016.45
2022-08-20T15:14:06.006Z,1016.45
2022-08-20T15:16:02.163Z,1016.45
2022-08-20T15:17:05.019Z,1016.45
2022-08-20T15:18:07.936Z,1016.46